createdAt,value
2019-05-11T00:01:43.860Z,22.03
2019-05-11T00:04:11.998Z,21.93
2019-05-11T00:06:40.419Z,21.63
2019-05-11T00:09:08.561Z,23.13
2019-05-11T00:11:36.691Z,22.77
2019-05-11T00:14:04.971Z,23.00
2019-05-11T00:16:33.081Z,23.13
2019-05-11T00:19:01.223Z,22.27
2019-05-11T00:21:29.343Z,22.83
2019-05-11T00:23:57.582Z,24.60
2019-05-11T00:26:25.699Z,23.37
2019-05-11T00:28:54.097Z,24.83
2019-05-11T00:31:22.284Z,26.13
2019-05-11T00:33:50.403Z,25.63
2019-05-11T00:36:18.527Z,28.13
2019-05-11T00:38:46.650Z,26.50
2019-05-11T00:41:14.779Z,27.50
2019-05-11T00:43:42.909Z,29.43
2019-05-11T00:46:11.485Z,30.73
2019-05-11T00:48:39.600Z,30.03
2019-05-11T00:51:07.735Z,32.33
2019-05-11T00:53:35.903Z,33.73
2019-05-11T00:56:04.230Z,32.60
2019-05-11T00:58:32.351Z,31.20
2019-05-11T01:01:00.493Z,30.27
2019-05-11T01:03:28.599Z,33.23
2019-05-11T01:05:56.749Z,30.70
2019-05-11T01:08:24.934Z,30.47
2019-05-11T01:10:53.409Z,28.80
2019-05-11T01:13:21.549Z,27.50
2019-05-11T01:15:49.665Z,28.33
2019-05-11T01:18:17.808Z,27.03
2019-05-11T01:20:45.917Z,28.43
2019-05-11T01:23:14.128Z,25.27
2019-05-11T01:25:42.368Z,25.20
2019-05-11T01:28:10.500Z,26.63
2019-05-11T01:30:38.999Z,28.80
2019-05-11T01:33:07.373Z,27.70
2019-05-11T01:35:35.912Z,25.20
2019-05-11T01:38:04.069Z,26.17
2019-05-11T01:40:32.258Z,26.23
2019-05-11T01:43:00.402Z,26.40
2019-05-11T01:45:28.523Z,25.80
2019-05-11T01:47:56.660Z,25.20
2019-05-11T01:50:24.776Z,26.00
2019-05-11T01:52:52.918Z,28.00
2019-05-11T01:55:24.930Z,26.73
2019-05-11T01:57:53.064Z,27.40
2019-05-11T02:00:21.258Z,27.97
2019-05-11T02:02:49.460Z,26.27
2019-05-11T02:05:30.388Z,27.33
2019-05-11T02:07:59.281Z,27.40
2019-05-11T02:10:27.464Z,28.53
2019-05-11T02:12:55.657Z,30.30
2019-05-11T02:15:24.060Z,29.03
2019-05-11T02:17:52.175Z,28.57
2019-05-11T02:20:20.307Z,30.27
2019-05-11T02:22:48.435Z,28.47
2019-05-11T02:25:16.636Z,29.53
2019-05-11T02:27:44.739Z,28.27
2019-05-11T02:30:12.957Z,28.60
2019-05-11T02:32:41.081Z,28.37
2019-05-11T02:35:09.409Z,28.77
2019-05-11T02:37:37.601Z,29.43
2019-05-11T02:40:06.683Z,30.17
2019-05-11T02:42:34.801Z,30.80
2019-05-11T02:45:03.972Z,29.87
2019-05-11T02:47:32.156Z,30.67
2019-05-11T02:50:00.306Z,30.17
2019-05-11T02:52:29.000Z,30.53
2019-05-11T02:54:57.776Z,31.90
2019-05-11T02:57:25.891Z,35.83
2019-05-11T02:59:54.011Z,36.60
2019-05-11T03:02:22.141Z,35.70
2019-05-11T03:04:50.326Z,34.77
2019-05-11T03:07:18.465Z,33.57
2019-05-11T03:09:46.587Z,33.83
2019-05-11T03:12:14.809Z,35.77
2019-05-11T03:14:42.932Z,36.73
2019-05-11T03:17:12.713Z,36.93
2019-05-11T03:19:40.903Z,38.37
2019-05-11T03:22:09.036Z,38.93
2019-05-11T03:24:37.153Z,40.17
2019-05-11T03:27:05.294Z,40.87
2019-05-11T03:29:33.408Z,39.83
2019-05-11T03:32:01.580Z,41.87
2019-05-11T03:34:29.719Z,43.73
2019-05-11T03:36:57.969Z,45.47
2019-05-11T03:39:26.147Z,44.03
2019-05-11T03:42:12.902Z,44.60
2019-05-11T03:44:24.130Z,43.60
2019-05-11T03:46:52.280Z,43.93
2019-05-11T03:49:20.397Z,46.73
2019-05-11T03:51:48.789Z,44.53
2019-05-11T03:54:17.008Z,46.30
2019-05-11T03:56:45.116Z,46.70
2019-05-11T03:59:13.270Z,45.83
2019-05-11T04:01:41.389Z,45.27
2019-05-11T04:04:09.552Z,41.60
2019-05-11T04:06:37.673Z,44.13
2019-05-11T04:09:06.268Z,44.00
2019-05-11T04:11:34.445Z,47.70
2019-05-11T04:14:02.652Z,47.63
2019-05-11T04:16:30.770Z,50.00
2019-05-11T04:18:58.907Z,56.17
2019-05-11T04:21:27.021Z,54.43
2019-05-11T04:23:55.214Z,54.77
2019-05-11T04:26:23.355Z,57.93
2019-05-11T04:28:51.548Z,56.60
2019-05-11T04:31:19.693Z,54.47
2019-05-11T04:33:48.121Z,51.70
2019-05-11T04:36:16.263Z,51.30
2019-05-11T04:38:44.380Z,53.83
2019-05-11T04:41:12.517Z,56.47
2019-05-11T04:43:40.633Z,56.60
2019-05-11T04:46:08.846Z,56.33
2019-05-11T04:48:36.966Z,52.03
2019-05-11T04:51:05.105Z,54.77
2019-05-11T04:53:33.312Z,60.07
2019-05-11T04:56:01.525Z,59.03
2019-05-11T04:58:29.654Z,60.60
2019-05-11T05:00:57.840Z,58.97
2019-05-11T05:03:39.818Z,58.93
2019-05-11T05:05:56.150Z,55.77
2019-05-11T05:08:26.726Z,58.63
2019-05-11T05:10:58.741Z,61.73
2019-05-11T05:13:29.270Z,59.17
2019-05-11T05:15:54.125Z,58.23
2019-05-11T05:18:22.344Z,58.97
2019-05-11T05:20:50.452Z,56.77
2019-05-11T05:23:18.605Z,56.43
2019-05-11T05:25:47.509Z,55.10
2019-05-11T05:28:15.653Z,57.00
2019-05-11T05:30:43.788Z,55.27
2019-05-11T05:33:11.933Z,54.67
2019-05-11T05:35:40.058Z,55.73
2019-05-11T05:38:08.260Z,53.77
2019-05-11T05:40:36.380Z,53.50
2019-05-11T05:43:04.585Z,51.30
2019-05-11T05:45:32.771Z,50.37
2019-05-11T05:48:00.929Z,52.70
2019-05-11T05:50:29.044Z,50.33
2019-05-11T05:52:57.188Z,50.90
2019-05-11T05:55:25.306Z,48.30
2019-05-11T05:57:53.442Z,49.63
2019-05-11T06:00:22.165Z,50.57
2019-05-11T06:02:50.431Z,43.40
2019-05-11T06:05:18.701Z,50.10
2019-05-11T06:07:46.854Z,49.77
2019-05-11T06:10:15.232Z,51.63
2019-05-11T06:12:43.364Z,48.93
2019-05-11T06:15:12.544Z,43.00
2019-05-11T06:17:40.741Z,49.83
2019-05-11T06:20:09.740Z,49.97
2019-05-11T06:22:38.569Z,49.53
2019-05-11T06:25:06.885Z,48.30
2019-05-11T06:27:35.080Z,47.07
2019-05-11T06:30:04.186Z,46.70
2019-05-11T06:32:32.308Z,46.53
2019-05-11T06:35:00.513Z,45.50
2019-05-11T06:37:28.691Z,46.23
2019-05-11T06:39:56.845Z,44.83
2019-05-11T06:42:25.003Z,45.73
2019-05-11T06:44:53.151Z,46.83
2019-05-11T06:47:21.280Z,45.17
2019-05-11T06:49:49.488Z,41.63
2019-05-11T06:52:17.609Z,44.40
2019-05-11T06:54:45.752Z,42.73
2019-05-11T06:57:13.902Z,42.13
2019-05-11T06:59:42.097Z,44.97
2019-05-11T07:02:10.300Z,46.87
2019-05-11T07:04:38.505Z,46.27
2019-05-11T07:07:07.234Z,47.40
2019-05-11T07:09:35.364Z,54.43
2019-05-11T07:12:03.544Z,52.03
2019-05-11T07:14:31.812Z,54.27
2019-05-11T07:16:59.936Z,49.47
2019-05-11T07:19:28.067Z,47.27
2019-05-11T07:21:56.215Z,49.90
2019-05-11T07:24:24.319Z,51.60
2019-05-11T07:26:52.529Z,53.00
2019-05-11T07:29:20.645Z,51.47
2019-05-11T07:31:48.905Z,51.10
2019-05-11T07:34:18.530Z,49.80
2019-05-11T07:36:47.689Z,52.40
2019-05-11T07:39:16.045Z,49.27
2019-05-11T07:41:47.950Z,50.60
2019-05-11T07:44:15.820Z,49.80
2019-05-11T07:46:44.036Z,45.57
2019-05-11T07:49:12.482Z,50.23
2019-05-11T07:51:40.638Z,48.70
2019-05-11T07:54:08.820Z,50.00
2019-05-11T07:56:39.005Z,50.13
2019-05-11T07:59:08.001Z,50.43
2019-05-11T08:01:38.562Z,50.30
2019-05-11T08:04:07.849Z,49.63
2019-05-11T08:06:36.174Z,46.83
2019-05-11T08:09:08.319Z,44.83
2019-05-11T08:11:38.658Z,42.07
2019-05-11T08:14:07.779Z,42.33
2019-05-11T08:16:38.687Z,41.30
2019-05-11T08:19:08.119Z,39.83
2019-05-11T08:21:36.128Z,39.90
2019-05-11T08:24:04.332Z,38.30
2019-05-11T08:26:32.537Z,36.53
2019-05-11T08:29:00.713Z,41.43
2019-05-11T08:31:28.829Z,40.83
2019-05-11T08:33:58.327Z,36.53
2019-05-11T08:36:28.965Z,37.17
2019-05-11T08:38:58.530Z,38.70
2019-05-11T08:41:27.958Z,34.00
2019-05-11T08:43:58.021Z,34.40
2019-05-11T08:46:27.950Z,33.67
2019-05-11T08:48:56.254Z,34.10
2019-05-11T08:51:24.409Z,34.87
2019-05-11T08:53:52.520Z,35.77
2019-05-11T08:56:20.665Z,35.27
2019-05-11T08:58:49.323Z,35.60
2019-05-11T09:01:18.393Z,35.40
2019-05-11T09:03:47.779Z,33.03
2019-05-11T09:06:17.862Z,33.60
2019-05-11T09:08:46.093Z,36.00
2019-05-11T09:11:14.224Z,33.33
2019-05-11T09:13:42.343Z,33.60
2019-05-11T09:16:10.489Z,33.97
2019-05-11T09:18:38.726Z,34.17
2019-05-11T09:21:08.312Z,36.57
2019-05-11T09:23:40.351Z,36.13
2019-05-11T09:26:08.737Z,35.30
2019-05-11T09:28:38.402Z,38.43
2019-05-11T09:31:08.436Z,38.30
2019-05-11T09:33:38.399Z,37.57
2019-05-11T09:36:08.331Z,39.13
2019-05-11T09:38:38.193Z,37.60
2019-05-11T09:41:08.993Z,39.47
2019-05-11T09:43:37.675Z,39.07
2019-05-11T09:46:08.096Z,35.90
2019-05-11T09:48:37.850Z,37.13
2019-05-11T09:51:07.926Z,35.90
2019-05-11T09:53:35.694Z,35.83
2019-05-11T09:56:03.967Z,34.40
2019-05-11T09:58:32.076Z,35.93
2019-05-11T10:01:00.192Z,37.60
2019-05-11T10:03:28.424Z,38.30
2019-05-11T10:05:58.043Z,34.67
2019-05-11T10:08:28.539Z,38.10
2019-05-11T10:10:58.049Z,37.53
2019-05-11T10:13:27.843Z,39.57
2019-05-11T10:16:04.638Z,38.07
2019-05-11T10:18:27.960Z,35.33
2019-05-11T10:20:56.015Z,34.30
2019-05-11T10:23:24.366Z,30.37
2019-05-11T10:25:52.503Z,25.77
2019-05-11T10:28:20.640Z,27.33
2019-05-11T10:30:48.880Z,23.33
2019-05-11T10:33:18.798Z,23.83
2019-05-11T10:35:48.310Z,24.30
2019-05-11T10:38:17.948Z,25.03
2019-05-11T10:40:48.006Z,24.40
2019-05-11T10:43:18.361Z,22.90
2019-05-11T10:45:48.344Z,25.50
2019-05-11T10:48:17.715Z,28.17
2019-05-11T10:50:48.250Z,27.30
2019-05-11T10:53:18.332Z,27.43
2019-05-11T10:55:47.812Z,27.77
2019-05-11T10:58:18.160Z,26.70
2019-05-11T11:00:47.904Z,24.33
2019-05-11T11:03:17.653Z,26.27
2019-05-11T11:05:45.116Z,23.80
2019-05-11T11:08:13.226Z,22.60
2019-05-11T11:10:41.359Z,16.30
2019-05-11T11:13:09.476Z,15.07
2019-05-11T11:15:38.207Z,14.73
2019-05-11T11:18:08.527Z,14.47
2019-05-11T11:20:38.420Z,15.73
2019-05-11T11:23:08.616Z,15.10
2019-05-11T11:25:37.596Z,15.77
2019-05-11T11:28:08.225Z,16.20
2019-05-11T11:30:37.730Z,15.87
2019-05-11T11:33:07.804Z,16.27
2019-05-11T11:35:35.384Z,16.30
2019-05-11T11:38:03.568Z,16.20
2019-05-11T11:40:31.778Z,17.53
2019-05-11T11:42:59.887Z,15.67
2019-05-11T11:45:28.750Z,15.53
2019-05-11T11:47:59.306Z,14.80
2019-05-11T11:50:28.355Z,13.63
2019-05-11T11:52:57.845Z,14.17
2019-05-11T11:55:26.213Z,14.20
2019-05-11T11:57:54.324Z,14.77
2019-05-11T12:00:22.856Z,14.43
2019-05-11T12:02:50.970Z,14.60
2019-05-11T12:05:19.105Z,15.10
2019-05-11T12:07:49.034Z,11.50
2019-05-11T12:10:18.383Z,14.00
2019-05-11T12:12:47.565Z,12.80
2019-05-11T12:15:17.767Z,12.53
2019-05-11T12:17:48.080Z,12.57
2019-05-11T12:20:18.039Z,12.87
2019-05-11T12:22:47.619Z,12.57
2019-05-11T12:25:18.447Z,13.10
2019-05-11T12:27:48.708Z,13.30
2019-05-11T12:30:17.786Z,11.17
2019-05-11T12:32:50.129Z,11.90
2019-05-11T12:35:18.718Z,10.43
2019-05-11T12:37:48.502Z,10.17
2019-05-11T12:40:18.012Z,13.80
2019-05-11T12:42:48.678Z,16.87
2019-05-11T12:45:18.186Z,17.90
2019-05-11T12:47:48.038Z,17.83
2019-05-11T12:50:18.690Z,19.00
2019-05-11T12:52:47.714Z,18.80
2019-05-11T12:55:17.904Z,18.67
2019-05-11T12:57:47.781Z,14.73
2019-05-11T13:00:17.804Z,12.27
2019-05-11T13:02:48.199Z,14.17
2019-05-11T13:05:18.066Z,15.27
2019-05-11T13:07:47.924Z,13.20
2019-05-11T13:10:17.715Z,11.40
2019-05-11T13:12:45.877Z,10.43
2019-05-11T13:15:14.206Z,10.77
2019-05-11T13:17:42.399Z,9.83
2019-05-11T13:20:12.821Z,9.20
2019-05-11T13:22:40.741Z,8.17
2019-05-11T13:25:08.940Z,8.47
2019-05-11T13:27:38.710Z,9.10
2019-05-11T13:30:08.103Z,8.70
2019-05-11T13:32:38.569Z,8.17
2019-05-11T13:35:06.273Z,7.73
2019-05-11T13:37:34.637Z,7.27
2019-05-11T13:40:03.686Z,6.93
2019-05-11T13:42:31.872Z,6.43
2019-05-11T13:45:00.020Z,7.87
2019-05-11T13:47:28.393Z,7.00
2019-05-11T13:49:58.396Z,7.37
2019-05-11T13:52:28.527Z,7.27
2019-05-11T13:54:58.402Z,7.43
2019-05-11T13:57:28.483Z,6.60
2019-05-11T13:59:57.913Z,6.90
2019-05-11T14:02:25.911Z,6.50
2019-05-11T14:04:54.076Z,6.17
2019-05-11T14:07:22.222Z,6.27
2019-05-11T14:09:50.400Z,6.30
2019-05-11T14:12:18.600Z,6.37
2019-05-11T14:14:48.132Z,5.53
2019-05-11T14:17:18.506Z,6.33
2019-05-11T14:19:49.123Z,6.87
2019-05-11T14:22:17.861Z,6.67
2019-05-11T14:24:48.184Z,6.67
2019-05-11T14:27:17.794Z,6.93
2019-05-11T14:29:45.845Z,6.40
2019-05-11T14:32:14.054Z,6.60
2019-05-11T14:34:42.245Z,5.90
2019-05-11T14:37:10.372Z,6.23
2019-05-11T14:39:38.524Z,5.97
2019-05-11T14:42:07.687Z,6.03
2019-05-11T14:44:37.733Z,5.40
2019-05-11T14:47:08.361Z,5.10
2019-05-11T14:49:37.778Z,5.20
2019-05-11T14:52:08.072Z,4.40
2019-05-11T14:54:38.034Z,4.87
2019-05-11T14:57:07.840Z,5.07
2019-05-11T14:59:37.351Z,5.00
2019-05-11T15:02:12.744Z,5.07
2019-05-11T15:04:41.036Z,4.47
2019-05-11T15:07:09.152Z,4.97
2019-05-11T15:09:37.658Z,5.27
2019-05-11T15:12:05.866Z,3.93
2019-05-11T15:14:33.992Z,4.30
2019-05-11T15:17:02.218Z,4.60
2019-05-11T15:19:30.366Z,3.93
2019-05-11T15:21:58.567Z,4.80
2019-05-11T15:24:28.851Z,4.50
2019-05-11T15:26:57.596Z,5.07
2019-05-11T15:29:25.927Z,5.33
2019-05-11T15:31:54.165Z,5.47
2019-05-11T15:34:22.368Z,4.90
2019-05-11T15:36:50.468Z,5.77
2019-05-11T15:39:18.918Z,4.63
2019-05-11T15:41:47.973Z,4.47
2019-05-11T15:44:18.259Z,3.87
2019-05-11T15:46:47.934Z,3.03
2019-05-11T15:49:18.050Z,3.00
2019-05-11T15:51:48.366Z,3.63
2019-05-11T15:54:18.350Z,3.23
2019-05-11T15:56:46.078Z,4.23
2019-05-11T15:59:14.213Z,3.70
2019-05-11T16:01:42.385Z,3.50
2019-05-11T16:04:10.487Z,3.10
2019-05-11T16:06:38.620Z,3.30
2019-05-11T16:09:08.318Z,3.50
2019-05-11T16:11:38.806Z,3.30
2019-05-11T16:14:08.559Z,2.80
2019-05-11T16:16:39.125Z,3.20
2019-05-11T16:19:14.436Z,3.23
2019-05-11T16:21:38.224Z,3.00
2019-05-11T16:24:08.107Z,3.00
2019-05-11T16:26:36.748Z,2.60
2019-05-11T16:29:04.871Z,2.53
2019-05-11T16:31:33.349Z,2.73
2019-05-11T16:34:02.771Z,2.60
2019-05-11T16:36:31.156Z,2.83
2019-05-11T16:38:59.261Z,2.67
2019-05-11T16:41:29.125Z,3.10
2019-05-11T16:43:58.532Z,2.77
2019-05-11T16:46:28.394Z,2.90
2019-05-11T16:48:57.906Z,3.30
2019-05-11T16:51:28.250Z,3.70
2019-05-11T16:53:56.060Z,3.10
2019-05-11T16:56:24.173Z,2.83
2019-05-11T16:58:54.724Z,2.73
2019-05-11T17:01:22.145Z,3.30
2019-05-11T17:03:50.282Z,3.20
2019-05-11T17:06:19.701Z,3.07
2019-05-11T17:08:48.811Z,3.10
2019-05-11T17:11:18.661Z,2.73
2019-05-11T17:13:48.316Z,3.17
2019-05-11T17:16:17.894Z,3.17
2019-05-11T17:18:48.372Z,2.50
2019-05-11T17:21:18.104Z,3.40
2019-05-11T17:23:48.552Z,3.20
2019-05-11T17:26:15.914Z,3.13
2019-05-11T17:28:44.054Z,2.90
2019-05-11T17:31:12.160Z,2.73
2019-05-11T17:33:40.306Z,3.33
2019-05-11T17:36:08.697Z,3.60
2019-05-11T17:38:38.987Z,3.50
2019-05-11T17:41:08.474Z,3.17
2019-05-11T17:43:38.696Z,2.60
2019-05-11T17:46:08.015Z,2.87
2019-05-11T17:48:38.593Z,3.17
2019-05-11T17:51:18.382Z,2.87
2019-05-11T17:53:37.848Z,3.47
2019-05-11T17:56:06.117Z,2.60
2019-05-11T17:58:34.243Z,3.00
2019-05-11T18:01:02.365Z,2.53
2019-05-11T18:03:30.765Z,2.50
2019-05-11T18:05:59.182Z,2.80
2019-05-11T18:08:30.531Z,2.53
2019-05-11T18:10:58.669Z,2.63
2019-05-11T18:13:28.391Z,2.63
2019-05-11T18:15:57.833Z,2.97
2019-05-11T18:18:28.940Z,2.80
2019-05-11T18:20:57.831Z,2.70
2019-05-11T18:23:28.253Z,2.60
2019-05-11T18:25:56.092Z,2.60
2019-05-11T18:28:24.220Z,2.60
2019-05-11T18:30:52.372Z,2.90
2019-05-11T18:33:20.546Z,2.33
2019-05-11T18:35:48.675Z,2.67
2019-05-11T18:38:17.798Z,2.60
2019-05-11T18:40:48.477Z,2.70
2019-05-11T18:43:15.940Z,2.73
2019-05-11T18:45:44.048Z,2.27
2019-05-11T18:48:12.184Z,2.47
2019-05-11T18:50:40.303Z,2.70
2019-05-11T18:53:09.132Z,2.47
2019-05-11T18:55:37.919Z,2.60
2019-05-11T18:58:06.233Z,2.70
2019-05-11T19:00:34.365Z,2.30
2019-05-11T19:03:02.613Z,2.50
2019-05-11T19:05:30.727Z,2.50
2019-05-11T19:07:58.875Z,1.77
2019-05-11T19:10:27.762Z,2.67
2019-05-11T19:12:58.698Z,2.50
2019-05-11T19:15:26.312Z,2.27
2019-05-11T19:17:54.469Z,2.53
2019-05-11T19:20:22.575Z,2.83
2019-05-11T19:22:50.679Z,3.10
2019-05-11T19:25:18.826Z,3.23
2019-05-11T19:27:50.170Z,3.20
2019-05-11T19:30:18.463Z,3.17
2019-05-11T19:32:48.667Z,2.90
2019-05-11T19:35:17.542Z,3.37
2019-05-11T19:37:48.650Z,3.33
2019-05-11T19:40:16.470Z,3.23
2019-05-11T19:42:54.668Z,3.07
2019-05-11T19:45:23.736Z,2.90
2019-05-11T19:47:52.079Z,2.90
2019-05-11T19:50:20.224Z,3.33
2019-05-11T19:52:48.487Z,3.40
2019-05-11T19:55:21.888Z,3.33
2019-05-11T19:57:50.084Z,2.83
2019-05-11T20:00:18.746Z,3.30
2019-05-11T20:02:46.935Z,3.03
2019-05-11T20:05:18.096Z,3.07
2019-05-11T20:07:45.201Z,3.47
2019-05-11T20:10:13.556Z,3.80
2019-05-11T20:12:41.967Z,3.80
2019-05-11T20:15:10.422Z,3.03
2019-05-11T20:17:39.279Z,3.10
2019-05-11T20:20:08.836Z,3.10
2019-05-11T20:22:38.998Z,3.03
2019-05-11T20:25:09.081Z,3.87
2019-05-11T20:27:38.824Z,3.57
2019-05-11T20:30:08.657Z,3.43
2019-05-11T20:32:38.878Z,3.20
2019-05-11T20:35:08.475Z,3.77
2019-05-11T20:37:38.406Z,3.00
2019-05-11T20:40:09.090Z,3.00
2019-05-11T20:42:38.080Z,3.17
2019-05-11T20:45:07.794Z,3.00
2019-05-11T20:47:38.173Z,2.57
2019-05-11T20:50:07.878Z,3.13
2019-05-11T20:52:38.771Z,2.97
2019-05-11T20:55:08.567Z,3.13
2019-05-11T20:57:36.104Z,2.80
2019-05-11T21:00:08.679Z,3.87
2019-05-11T21:02:38.005Z,3.13
2019-05-11T21:05:09.026Z,3.07
2019-05-11T21:07:38.754Z,3.03
2019-05-11T21:10:08.662Z,3.83
2019-05-11T21:12:38.570Z,3.40
2019-05-11T21:15:08.180Z,3.97
2019-05-11T21:17:36.357Z,3.70
2019-05-11T21:20:08.271Z,3.67
2019-05-11T21:22:40.139Z,3.83
2019-05-11T21:25:08.835Z,3.60
2019-05-11T21:27:38.450Z,3.53
2019-05-11T21:30:09.254Z,3.27
2019-05-11T21:32:37.325Z,3.40
2019-05-11T21:35:05.521Z,3.43
2019-05-11T21:37:33.693Z,3.73
2019-05-11T21:40:01.827Z,3.10
2019-05-11T21:42:29.942Z,3.07
2019-05-11T21:44:58.182Z,3.13
2019-05-11T21:47:28.821Z,2.17
2019-05-11T21:49:57.747Z,2.70
2019-05-11T21:52:26.070Z,3.17
2019-05-11T21:54:54.682Z,3.07
2019-05-11T21:57:22.860Z,2.90
2019-05-11T21:59:50.999Z,3.00
2019-05-11T22:02:19.177Z,3.03
2019-05-11T22:04:47.986Z,3.23
2019-05-11T22:07:16.266Z,3.00
2019-05-11T22:09:44.390Z,3.50
2019-05-11T22:12:12.494Z,3.63
2019-05-11T22:14:40.625Z,3.37
2019-05-11T22:17:08.736Z,3.57
2019-05-11T22:19:40.252Z,2.70
2019-05-11T22:22:19.085Z,3.00
2019-05-11T22:24:36.897Z,2.40
2019-05-11T22:27:05.008Z,2.50
2019-05-11T22:29:33.116Z,2.57
2019-05-11T22:32:01.248Z,2.50
2019-05-11T22:34:29.367Z,2.17
2019-05-11T22:36:58.257Z,2.60
2019-05-11T22:39:26.480Z,2.20
2019-05-11T22:41:54.628Z,2.13
2019-05-11T22:44:22.861Z,2.17
2019-05-11T22:46:51.269Z,2.87
2019-05-11T22:49:19.468Z,3.10
2019-05-11T22:51:47.605Z,2.43
2019-05-11T22:54:18.416Z,2.80
2019-05-11T22:56:45.581Z,3.10
2019-05-11T22:59:13.692Z,2.50
2019-05-11T23:01:41.825Z,2.60
2019-05-11T23:04:10.068Z,2.60
2019-05-11T23:06:40.302Z,2.87
2019-05-11T23:09:08.103Z,2.70
2019-05-11T23:11:37.945Z,2.57
2019-05-11T23:14:09.595Z,2.60
2019-05-11T23:16:36.055Z,2.40
2019-05-11T23:19:04.257Z,2.70
2019-05-11T23:21:32.639Z,2.83
2019-05-11T23:24:00.779Z,2.40
2019-05-11T23:26:28.888Z,2.87
2019-05-11T23:28:57.993Z,2.20
2019-05-11T23:31:27.836Z,2.40
2019-05-11T23:33:57.870Z,2.73
2019-05-11T23:36:28.022Z,2.80
2019-05-11T23:38:58.588Z,3.10
2019-05-11T23:41:28.557Z,2.43
2019-05-11T23:43:58.371Z,2.83
2019-05-11T23:46:28.253Z,3.30
2019-05-11T23:48:57.986Z,2.80
2019-05-11T23:51:28.054Z,2.83
2019-05-11T23:53:55.682Z,2.60
2019-05-11T23:56:24.361Z,2.70
2019-05-11T23:58:52.492Z,2.60
